Time;durP1;ratioP1;P1;durP2;ratioP2;P2;SDS_P1;SDS_P2;PMS_P1;PMS_P2;Temp;Humidity;BMP_temperature;BMP_pressure;BME280_temperature;BME280_humidity;BME280_pressure;Samples;Min_cycle;Max_cycle;Signal;HPM_P1;HPM_P2
2023/06/29 00:00:39;;;;;;;20.70;16.55;;;;;;;20.07;92.24;101565.28;5003815;28;20494;-48
2023/06/29 00:03:04;;;;;;;19.27;15.98;;;;;;;20.07;92.17;101564.47;4998179;28;20030;-49
2023/06/29 00:05:30;;;;;;;19.98;15.38;;;;;;;20.08;91.99;101558.88;5003598;28;20026;-48
2023/06/29 00:07:58;;;;;;;19.85;15.65;;;;;;;20.05;91.52;101555.66;4999933;28;20023;-51
2023/06/29 00:10:25;;;;;;;23.55;16.05;;;;;;;20.02;91.92;101551.47;5003126;28;20061;-49
2023/06/29 00:12:50;;;;;;;19.83;15.55;;;;;;;20.01;91.61;101546.22;4999465;28;20027;-51
2023/06/29 00:15:16;;;;;;;18.17;15.25;;;;;;;20.01;90.68;101540.81;5003343;28;20092;-50
2023/06/29 00:17:41;;;;;;;20.00;15.90;;;;;;;19.98;89.77;101544.69;4999753;28;20117;-51
2023/06/29 00:20:10;;;;;;;21.15;16.25;;;;;;;19.94;89.60;101532.53;5004695;28;20451;-49
2023/06/29 00:22:36;;;;;;;19.13;15.27;;;;;;;19.96;89.17;101533.22;5000764;28;20021;-50
2023/06/29 00:25:02;;;;;;;21.98;16.45;;;;;;;19.92;88.83;101535.41;5003511;28;20022;-49
2023/06/29 00:27:27;;;;;;;18.83;15.23;;;;;;;19.93;89.47;101539.81;5000531;28;20023;-51
2023/06/29 00:29:53;;;;;;;22.90;15.05;;;;;;;19.90;88.86;101528.47;5001575;28;20510;-51
2023/06/29 00:32:18;;;;;;;19.25;15.90;;;;;;;19.90;88.09;101528.47;4999195;28;20115;-51
2023/06/29 00:34:44;;;;;;;21.13;16.02;;;;;;;19.87;88.29;101534.22;5003004;28;20521;-48
2023/06/29 00:37:10;;;;;;;23.67;16.90;;;;;;;19.81;88.54;101519.50;4996703;28;20488;-51
2023/06/29 00:39:35;;;;;;;18.08;15.75;;;;;;;19.81;89.16;101524.91;5001091;28;20036;-49
2023/06/29 00:42:02;;;;;;;21.13;15.32;;;;;;;19.81;89.41;101524.91;4999610;28;20057;-50
2023/06/29 00:44:28;;;;;;;20.92;15.80;;;;;;;19.83;89.14;101530.13;5000840;28;20034;-48
2023/06/29 00:46:53;;;;;;;19.95;15.48;;;;;;;19.81;89.80;101524.06;4999659;28;20033;-48
2023/06/29 00:49:20;;;;;;;23.55;16.08;;;;;;;19.81;89.42;101530.28;5002973;28;20076;-49
2023/06/29 00:51:52;;;;;;;20.33;15.60;;;;;;;19.84;89.14;101529.13;4998521;28;20053;-48
2023/06/29 00:54:19;;;;;;;18.05;14.98;;;;;;;19.82;88.55;101525.72;5002885;28;20068;-48
2023/06/29 00:56:45;;;;;;;18.90;15.98;;;;;;;19.79;88.74;101518.84;4998708;28;20110;-51
2023/06/29 00:59:10;;;;;;;18.63;14.82;;;;;;;19.78;89.04;101514.44;5002163;28;20038;-48
2023/06/29 01:01:38;;;;;;;21.10;15.30;;;;;;;19.78;89.25;101520.69;4998972;28;20392;-48
2023/06/29 01:04:04;;;;;;;20.83;15.32;;;;;;;19.80;89.15;101516.97;5003148;28;20022;-49
2023/06/29 01:06:32;;;;;;;18.08;15.32;;;;;;;19.80;89.01;101508.88;4999327;28;20030;-49
2023/06/29 01:09:04;;;;;;;20.58;15.93;;;;;;;19.78;88.97;101512.59;4997502;28;20416;-49
2023/06/29 01:11:37;;;;;;;23.63;16.98;;;;;;;19.75;89.82;101510.22;4997628;28;20034;-51
2023/06/29 01:14:06;;;;;;;19.63;15.77;;;;;;;19.78;89.96;101518.00;4996895;28;20112;-50
2023/06/29 01:16:33;;;;;;;27.70;16.88;;;;;;;19.80;89.37;101515.16;5002724;28;20022;-49
2023/06/29 01:19:04;;;;;;;19.83;16.17;;;;;;;19.76;90.47;101514.59;5000455;28;20041;-49
2023/06/29 01:21:31;;;;;;;22.00;16.73;;;;;;;19.76;90.97;101508.38;5007566;28;20068;-48
2023/06/29 01:23:57;;;;;;;23.67;16.23;;;;;;;19.78;90.43;101506.34;4997699;28;20034;-49
2023/06/29 01:26:23;;;;;;;27.13;17.20;;;;;;;19.74;91.05;101505.81;5004916;28;20034;-48
2023/06/29 01:28:51;;;;;;;23.45;17.92;;;;;;;19.72;91.32;101502.44;4999129;28;20046;-48
2023/06/29 01:31:17;;;;;;;21.38;16.85;;;;;;;19.69;91.35;101494.66;5002580;28;20022;-49
2023/06/29 01:33:43;;;;;;;23.00;17.00;;;;;;;19.69;91.67;101499.22;5002470;28;20446;-48
2023/06/29 01:36:24;;;;;;;24.60;16.67;;;;;;;19.63;90.60;101475.59;4995866;28;20039;-50
2023/06/29 01:38:55;;;;;;;23.40;16.05;;;;;;;19.68;91.71;101492.97;4994694;28;20387;-49
2023/06/29 01:41:22;;;;;;;25.05;16.80;;;;;;;19.68;92.08;101492.13;5000731;28;20042;-51
2023/06/29 01:43:48;;;;;;;23.58;16.60;;;;;;;19.68;92.40;101489.44;4996998;28;20097;-48
2023/06/29 01:46:14;;;;;;;21.90;16.83;;;;;;;19.66;92.26;101486.06;5001684;28;20018;-49
2023/06/29 01:48:40;;;;;;;24.70;17.17;;;;;;;19.66;92.24;101489.59;5000898;28;20487;-51
2023/06/29 01:51:07;;;;;;;23.10;16.35;;;;;;;19.67;91.63;101480.50;5000647;28;20022;-49
2023/06/29 01:53:35;;;;;;;21.25;16.02;;;;;;;19.68;92.26;101487.56;4998454;28;20037;-49
2023/06/29 01:56:01;;;;;;;24.17;16.70;;;;;;;19.68;91.60;101478.66;5000682;28;20038;-48
2023/06/29 01:58:26;;;;;;;21.92;16.38;;;;;;;19.68;91.57;101479.50;4997700;28;20357;-48
2023/06/29 02:00:51;;;;;;;18.58;15.93;;;;;;;19.67;91.11;101477.81;5001414;28;20053;-51
2023/06/29 02:03:17;;;;;;;21.83;16.80;;;;;;;19.68;91.68;101490.28;4997645;28;20113;-48
2023/06/29 02:05:42;;;;;;;19.65;15.95;;;;;;;19.66;91.82;101486.91;5001334;28;20113;-52
2023/06/29 02:08:07;;;;;;;20.08;16.08;;;;;;;19.66;92.15;101477.97;5001171;28;20060;-48
2023/06/29 02:10:33;;;;;;;20.15;16.05;;;;;;;19.65;92.02;101479.84;5001821;28;20427;-48
2023/06/29 02:12:58;;;;;;;21.02;15.95;;;;;;;19.65;91.48;101470.88;4998504;28;20495;-50
2023/06/29 02:15:23;;;;;;;22.42;16.23;;;;;;;19.65;92.08;101477.16;4999209;28;20555;-48
2023/06/29 02:17:49;;;;;;;21.95;16.25;;;;;;;19.66;91.96;101475.28;5000396;28;20101;-49
2023/06/29 02:20:14;;;;;;;18.75;15.65;;;;;;;19.62;91.21;101461.28;4996323;28;20026;-48
2023/06/29 02:22:39;;;;;;;21.60;16.20;;;;;;;19.63;91.52;101471.03;5000619;28;20029;-49
2023/06/29 02:25:05;;;;;;;21.25;17.23;;;;;;;19.62;91.90;101473.91;4997433;28;20096;-48
2023/06/29 02:27:30;;;;;;;21.23;16.50;;;;;;;19.64;90.71;101463.84;5000973;28;20034;-48
2023/06/29 02:29:55;;;;;;;21.47;16.40;;;;;;;19.64;91.17;101466.53;4997375;28;20033;-48
2023/06/29 02:32:21;;;;;;;20.38;16.48;;;;;;;19.64;91.15;101469.22;4999992;28;20343;-48
2023/06/29 02:34:46;;;;;;;23.05;17.92;;;;;;;19.61;91.83;101464.97;4995847;28;20065;-48
2023/06/29 02:37:11;;;;;;;22.17;17.73;;;;;;;19.62;91.84;101461.28;5000901;28;20022;-50
2023/06/29 02:39:36;;;;;;;22.65;16.65;;;;;;;19.60;92.15;101455.19;4996596;28;20273;-48
2023/06/29 02:42:02;;;;;;;21.73;17.43;;;;;;;19.56;92.60;101449.28;5002694;28;20069;-49
2023/06/29 02:44:27;;;;;;;22.10;17.77;;;;;;;19.58;92.53;101449.13;4996596;28;20300;-49
2023/06/29 02:46:52;;;;;;;21.85;17.52;;;;;;;19.56;92.34;101451.16;4995001;28;20030;-48
2023/06/29 02:49:18;;;;;;;20.25;17.50;;;;;;;19.58;92.38;101451.81;4998406;28;20022;-51
2023/06/29 02:51:43;;;;;;;20.90;18.67;;;;;;;19.56;92.14;101449.28;4996365;28;20034;-50
2023/06/29 02:54:08;;;;;;;21.48;17.50;;;;;;;19.58;92.48;101447.31;4997226;28;20018;-49
2023/06/29 02:56:34;;;;;;;23.58;19.30;;;;;;;19.57;92.76;101444.78;5004531;28;20026;-48
2023/06/29 02:58:59;;;;;;;23.02;19.10;;;;;;;19.50;92.92;101439.19;5002620;28;20022;-48
2023/06/29 03:01:25;;;;;;;24.17;19.33;;;;;;;19.54;92.58;101447.78;5000488;28;20204;-50
2023/06/29 03:03:50;;;;;;;22.90;19.70;;;;;;;19.52;93.20;101447.94;5000276;28;20014;-48
2023/06/29 03:06:15;;;;;;;22.43;18.93;;;;;;;19.49;92.93;101437.47;5001292;28;20373;-48
2023/06/29 03:08:41;;;;;;;23.50;19.58;;;;;;;19.50;94.10;101455.34;4998696;28;20288;-48
2023/06/29 03:11:06;;;;;;;25.73;20.15;;;;;;;19.51;93.77;101446.25;5000584;28;20022;-48
2023/06/29 03:13:31;;;;;;;24.25;20.38;;;;;;;19.50;93.89;101444.56;4999118;28;20033;-48
2023/06/29 03:15:59;;;;;;;26.75;21.48;;;;;;;19.48;94.54;101443.88;5001152;28;20044;-49
2023/06/29 03:18:25;;;;;;;25.27;20.80;;;;;;;19.47;94.10;101442.19;5001909;28;20026;-49
2023/06/29 03:20:50;;;;;;;27.50;22.10;;;;;;;19.45;94.68;101438.84;4998327;28;20034;-51
2023/06/29 03:23:15;;;;;;;28.58;21.42;;;;;;;19.48;93.77;101440.34;4999981;28;20113;-49
2023/06/29 03:25:40;;;;;;;25.65;21.60;;;;;;;19.48;94.76;101437.66;5001902;28;20030;-51
2023/06/29 03:28:06;;;;;;;29.02;22.70;;;;;;;19.45;94.71;101436.13;4995736;28;21071;-51
2023/06/29 03:30:31;;;;;;;28.95;22.75;;;;;;;19.47;94.50;101433.25;4999118;28;20030;-49
2023/06/29 03:32:58;;;;;;;27.73;21.88;;;;;;;19.48;94.52;101429.56;4996201;28;20460;-49
2023/06/29 03:35:24;;;;;;;27.73;22.50;;;;;;;19.45;95.53;101425.38;4998333;28;20034;-51
2023/06/29 03:37:49;;;;;;;29.50;22.08;;;;;;;19.45;94.89;101428.06;5000371;28;20447;-51
2023/06/29 03:40:16;;;;;;;28.38;22.00;;;;;;;19.46;94.78;101432.41;5004922;28;20045;-49
2023/06/29 03:42:41;;;;;;;28.90;22.63;;;;;;;19.45;95.14;101424.50;4997462;28;20031;-48
2023/06/29 03:45:07;;;;;;;29.85;23.00;;;;;;;19.46;95.27;101423.50;4999703;28;20053;-50
2023/06/29 03:47:32;;;;;;;29.52;22.67;;;;;;;19.46;95.29;101432.41;4995300;28;20510;-51
2023/06/29 03:49:58;;;;;;;33.17;23.50;;;;;;;19.47;95.45;101436.81;4999694;28;20022;-49
2023/06/29 03:52:23;;;;;;;32.72;23.27;;;;;;;19.45;95.80;101433.44;4995782;28;20034;-49
2023/06/29 03:54:49;;;;;;;29.77;23.23;;;;;;;19.42;95.86;101434.59;4999883;28;20038;-48
2023/06/29 03:57:15;;;;;;;30.63;24.83;;;;;;;19.43;96.15;101424.66;4995393;28;20395;-48
2023/06/29 03:59:40;;;;;;;35.35;24.90;;;;;;;19.43;96.38;101416.56;4999682;28;20033;-49
2023/06/29 04:02:06;;;;;;;28.42;23.92;;;;;;;19.41;95.89;101405.13;4997085;28;20502;-48
2023/06/29 04:04:31;;;;;;;30.05;24.50;;;;;;;19.45;95.72;101419.09;4998526;28;20030;-50
2023/06/29 04:06:56;;;;;;;30.27;24.17;;;;;;;19.42;96.08;101417.59;4994661;28;20065;-51
2023/06/29 04:09:22;;;;;;;28.10;23.55;;;;;;;19.44;95.64;101409.34;5001225;28;20105;-48
2023/06/29 04:11:47;;;;;;;31.63;23.90;;;;;;;19.44;96.09;101409.34;5002971;28;20030;-48
2023/06/29 04:14:12;;;;;;;30.10;24.40;;;;;;;19.42;96.88;101407.66;4999260;28;20495;-49
2023/06/29 04:16:38;;;;;;;31.05;24.50;;;;;;;19.44;95.80;101412.88;4996440;28;20121;-48
2023/06/29 04:19:03;;;;;;;27.83;22.80;;;;;;;19.44;96.39;101412.88;5005023;28;20018;-48
2023/06/29 04:21:28;;;;;;;29.17;22.95;;;;;;;19.47;95.71;101406.31;5005476;28;20172;-49
2023/06/29 04:23:53;;;;;;;29.80;23.60;;;;;;;19.47;96.33;101406.31;5003376;28;20026;-48
2023/06/29 04:26:21;;;;;;;30.57;23.37;;;;;;;19.45;96.16;101403.81;5000818;28;20085;-49
2023/06/29 04:28:46;;;;;;;27.83;23.10;;;;;;;19.47;96.65;101406.31;5002277;28;21153;-48
2023/06/29 04:31:12;;;;;;;31.17;24.10;;;;;;;19.48;95.84;101408.00;4997931;28;20027;-49
2023/06/29 04:33:38;;;;;;;30.52;23.40;;;;;;;19.48;96.74;101400.75;5004772;28;20053;-50
2023/06/29 04:36:03;;;;;;;29.00;23.85;;;;;;;19.49;96.40;101407.03;4999453;28;20030;-50
2023/06/29 04:38:29;;;;;;;31.67;24.20;;;;;;;19.49;97.29;101407.84;5001875;28;20518;-48
2023/06/29 04:41:03;;;;;;;32.47;24.08;;;;;;;19.50;96.40;101412.25;5001822;28;20502;-48
2023/06/29 04:43:28;;;;;;;30.25;22.73;;;;;;;19.51;96.55;101405.84;5003312;28;20030;-51
2023/06/29 04:45:53;;;;;;;30.17;23.15;;;;;;;19.51;96.16;101405.84;4999963;28;20036;-50
2023/06/29 04:48:19;;;;;;;31.00;24.58;;;;;;;19.52;97.06;101404.84;5002639;28;20482;-48
2023/06/29 04:50:44;;;;;;;29.38;23.52;;;;;;;19.52;97.14;101402.13;4998895;28;20032;-49
2023/06/29 04:53:12;;;;;;;29.70;23.30;;;;;;;19.53;97.24;101403.81;4996976;28;20388;-48
2023/06/29 04:55:38;;;;;;;30.95;24.35;;;;;;;19.55;97.41;101404.50;5001607;28;20510;-49
2023/06/29 04:58:04;;;;;;;30.90;22.65;;;;;;;19.56;97.66;101400.78;5001297;28;20034;-48
2023/06/29 05:00:32;;;;;;;27.85;22.55;;;;;;;19.57;96.66;101407.88;5004326;28;20022;-49
2023/06/29 05:02:58;;;;;;;31.92;24.10;;;;;;;19.59;97.12;101407.72;5000551;28;20025;-49
2023/06/29 05:05:24;;;;;;;29.45;22.90;;;;;;;19.60;96.31;101404.88;4999671;28;20034;-49
2023/06/29 05:07:50;;;;;;;27.70;21.40;;;;;;;19.63;96.67;101406.38;5004056;28;20399;-48
2023/06/29 05:10:15;;;;;;;30.95;22.58;;;;;;;19.65;96.74;101403.53;5003858;28;20108;-48
2023/06/29 05:12:41;;;;;;;29.52;23.75;;;;;;;19.64;97.29;101405.38;5005659;28;20491;-48
2023/06/29 05:15:06;;;;;;;27.85;23.25;;;;;;;19.67;97.45;101401.50;4999206;28;20768;-50
2023/06/29 05:17:32;;;;;;;28.75;23.13;;;;;;;19.69;96.62;101403.03;5002038;28;20036;-49
2023/06/29 05:19:58;;;;;;;29.30;22.70;;;;;;;19.70;97.20;101399.34;5006359;28;20048;-47
2023/06/29 05:22:23;;;;;;;30.30;22.75;;;;;;;19.73;97.50;101403.53;4998822;28;20379;-48
2023/06/29 05:24:48;;;;;;;30.25;23.20;;;;;;;19.74;96.57;101399.84;4999733;28;20030;-48
2023/06/29 05:27:14;;;;;;;29.17;24.25;;;;;;;19.77;96.48;101394.16;5000484;28;20149;-48
2023/06/29 05:29:39;;;;;;;30.42;23.80;;;;;;;19.77;96.52;101395.00;4995388;28;20034;-49
2023/06/29 05:32:05;;;;;;;30.15;23.30;;;;;;;19.80;96.28;101395.69;5000200;28;20026;-49
2023/06/29 05:34:30;;;;;;;30.52;22.73;;;;;;;19.81;96.06;101391.97;4998436;28;20058;-48
2023/06/29 05:36:55;;;;;;;31.30;23.15;;;;;;;19.84;95.65;101387.09;4999200;28;20034;-48
2023/06/29 05:39:21;;;;;;;31.67;22.95;;;;;;;19.84;95.83;101386.28;4987651;28;20046;-48
2023/06/29 05:41:48;;;;;;;27.08;22.15;;;;;;;19.86;95.81;101392.34;4987207;28;20042;-47
2023/06/29 05:44:13;;;;;;;30.20;22.95;;;;;;;19.85;95.68;101393.31;4993552;28;20042;-48
2023/06/29 05:46:38;;;;;;;29.33;22.90;;;;;;;19.89;96.05;101392.84;4992872;28;20365;-47
2023/06/29 05:49:04;;;;;;;32.72;24.40;;;;;;;19.94;94.79;101384.25;5001839;28;20196;-48
2023/06/29 05:51:29;;;;;;;28.15;23.38;;;;;;;19.96;94.15;101387.63;5002290;28;20030;-47
2023/06/29 05:53:55;;;;;;;29.45;23.42;;;;;;;19.98;93.25;101396.38;4997431;28;20267;-48
2023/06/29 05:56:20;;;;;;;27.90;23.10;;;;;;;20.01;92.91;101390.66;4993901;28;20439;-47
2023/06/29 05:58:46;;;;;;;28.58;22.05;;;;;;;20.06;92.59;101387.47;4998306;28;20061;-51
2023/06/29 06:01:12;;;;;;;28.30;21.65;;;;;;;20.08;92.42;101388.16;4998507;28;20054;-47
2023/06/29 06:03:38;;;;;;;27.63;21.38;;;;;;;20.10;92.07;101386.13;4999281;28;20046;-48
2023/06/29 06:06:04;;;;;;;27.83;21.65;;;;;;;20.14;91.66;101385.63;4992901;28;20038;-48
2023/06/29 06:08:29;;;;;;;28.75;21.48;;;;;;;20.16;90.94;101388.16;4995014;28;20048;-48
2023/06/29 06:10:54;;;;;;;27.50;19.95;;;;;;;20.19;90.36;101387.81;4998949;28;20526;-48
2023/06/29 06:13:19;;;;;;;27.25;20.08;;;;;;;20.22;89.36;101387.50;4997475;28;20176;-47
2023/06/29 06:15:45;;;;;;;26.65;20.50;;;;;;;20.28;88.32;101385.97;5002485;28;20025;-50
2023/06/29 06:18:10;;;;;;;25.30;18.90;;;;;;;20.32;89.16;101388.16;4995621;28;20387;-47
2023/06/29 06:20:36;;;;;;;26.05;18.92;;;;;;;20.37;87.96;101389.50;4996898;28;20045;-48
2023/06/29 06:23:01;;;;;;;27.63;19.27;;;;;;;20.43;87.63;101384.28;4996156;28;20399;-48
2023/06/29 06:25:26;;;;;;;25.23;19.00;;;;;;;20.49;87.34;101389.00;4997830;28;20026;-48
2023/06/29 06:27:52;;;;;;;24.23;18.20;;;;;;;20.58;87.30;101389.81;4994223;28;20096;-48
2023/06/29 06:30:17;;;;;;;20.63;16.70;;;;;;;20.63;86.53;101390.22;5005707;28;20121;-48
2023/06/29 06:32:42;;;;;;;24.50;17.73;;;;;;;20.67;85.81;101386.16;4995664;28;20406;-47
2023/06/29 06:35:09;;;;;;;22.17;16.92;;;;;;;20.75;85.08;101385.31;4999262;28;20046;-47
2023/06/29 06:37:37;;;;;;;23.90;17.50;;;;;;;20.83;85.48;101393.41;4996048;28;20483;-48
2023/06/29 06:40:07;;;;;;;25.98;16.85;;;;;;;20.91;85.59;101391.69;4995777;28;20042;-45
2023/06/29 06:42:34;;;;;;;22.05;16.80;;;;;;;20.96;83.95;101382.03;5002816;28;20048;-49
2023/06/29 06:45:03;;;;;;;19.27;16.13;;;;;;;21.04;83.46;101382.00;4994701;28;20042;-48
2023/06/29 06:47:35;;;;;;;22.58;16.10;;;;;;;21.17;85.13;101376.06;4991929;28;20040;-48
2023/06/29 06:50:01;;;;;;;21.02;16.17;;;;;;;21.28;84.00;101387.50;4995699;28;20038;-49
2023/06/29 06:52:27;;;;;;;21.58;16.17;;;;;;;21.43;82.33;101386.63;4995580;28;20405;-48
2023/06/29 06:54:52;;;;;;;22.52;17.25;;;;;;;21.61;80.28;101382.81;4989393;28;20027;-48
2023/06/29 06:57:18;;;;;;;26.40;17.10;;;;;;;21.80;80.10;101387.78;4991210;28;20041;-48
2023/06/29 06:59:44;;;;;;;25.23;17.92;;;;;;;22.02;78.94;101390.69;4964706;28;21104;-50
2023/06/29 07:02:09;;;;;;;21.05;16.75;;;;;;;22.34;79.40;101381.50;4993916;28;20062;-47
2023/06/29 07:04:35;;;;;;;21.60;16.40;;;;;;;22.59;77.17;101375.88;4993899;28;20084;-48
2023/06/29 07:07:00;;;;;;;23.98;17.90;;;;;;;22.75;72.96;101376.72;4994612;28;20034;-48
2023/06/29 07:09:25;;;;;;;21.15;16.45;;;;;;;22.83;73.55;101374.81;4994930;28;20038;-48
2023/06/29 07:11:51;;;;;;;21.93;17.43;;;;;;;22.92;72.29;101381.78;4994993;28;20021;-48
2023/06/29 07:14:16;;;;;;;21.10;16.75;;;;;;;23.09;71.40;101376.22;4994893;28;20608;-49
2023/06/29 07:16:42;;;;;;;21.23;17.00;;;;;;;23.20;69.83;101383.88;4994628;28;20126;-48
2023/06/29 07:19:15;;;;;;;23.20;17.00;;;;;;;23.41;69.51;101382.25;4991185;28;20027;-48
2023/06/29 07:21:41;;;;;;;23.85;18.25;;;;;;;23.48;67.92;101379.63;4989514;28;20026;-48
2023/06/29 07:24:07;;;;;;;27.08;17.27;;;;;;;23.58;68.37;101383.75;4995499;28;20468;-49
2023/06/29 07:26:32;;;;;;;25.58;19.50;;;;;;;23.72;67.81;101382.00;4995849;28;20026;-48
2023/06/29 07:28:58;;;;;;;23.77;18.00;;;;;;;23.76;66.39;101375.16;4997769;28;20019;-48
2023/06/29 07:31:27;;;;;;;23.70;18.10;;;;;;;23.73;64.90;101378.28;4999677;28;20391;-48
2023/06/29 07:33:53;;;;;;;23.75;17.42;;;;;;;23.81;65.02;101378.16;4995615;28;20050;-48
2023/06/29 07:36:23;;;;;;;20.88;17.40;;;;;;;23.88;64.40;101374.69;4998858;28;20479;-48
2023/06/29 07:38:49;;;;;;;24.75;18.80;;;;;;;23.94;63.53;101368.50;4993546;28;20026;-49
2023/06/29 07:41:15;;;;;;;22.45;17.88;;;;;;;24.02;63.53;101376.53;4998762;28;20645;-49
2023/06/29 07:43:42;;;;;;;22.52;18.42;;;;;;;24.20;63.25;101368.75;4993608;28;20034;-49
2023/06/29 07:46:07;;;;;;;22.85;18.15;;;;;;;24.37;64.06;101374.75;4996428;28;20034;-48
2023/06/29 07:48:33;;;;;;;22.58;18.00;;;;;;;24.48;63.06;101367.94;4995718;28;20030;-48
2023/06/29 07:50:58;;;;;;;21.58;18.27;;;;;;;24.52;60.00;101369.22;4997704;28;20026;-48
2023/06/29 07:53:24;;;;;;;22.25;18.08;;;;;;;24.60;62.29;101372.84;4997268;28;20023;-48
2023/06/29 07:55:49;;;;;;;24.75;18.23;;;;;;;24.64;59.03;101371.44;4996122;28;20026;-49
2023/06/29 07:58:14;;;;;;;23.37;18.27;;;;;;;24.59;59.48;101361.16;4994780;28;20056;-48
2023/06/29 08:00:40;;;;;;;21.97;17.23;;;;;;;24.58;60.43;101369.50;5005246;28;20312;-49
2023/06/29 08:03:05;;;;;;;24.80;18.63;;;;;;;24.60;60.56;101362.84;4997849;28;20293;-48
2023/06/29 08:05:31;;;;;;;21.63;17.10;;;;;;;24.62;60.13;101365.38;5000059;28;20034;-48
2023/06/29 08:07:56;;;;;;;20.92;17.00;;;;;;;24.58;60.02;101364.06;4986075;28;20028;-48
2023/06/29 08:10:22;;;;;;;24.15;18.60;;;;;;;24.51;60.79;101364.00;4998853;28;20041;-48
2023/06/29 08:12:49;;;;;;;23.48;18.25;;;;;;;24.52;58.89;101358.38;5002525;28;20050;-48
2023/06/29 08:15:15;;;;;;;21.73;17.77;;;;;;;24.52;59.27;101361.06;4994967;28;20038;-47
2023/06/29 08:17:40;;;;;;;22.02;17.05;;;;;;;24.54;59.39;101359.00;5004396;28;20025;-47
2023/06/29 08:20:09;;;;;;;21.08;18.23;;;;;;;24.54;59.52;101363.59;5002062;28;20368;-47
2023/06/29 08:22:34;;;;;;;25.77;18.45;;;;;;;24.64;60.82;101357.84;4997967;28;20030;-47
2023/06/29 08:24:59;;;;;;;24.47;19.20;;;;;;;24.75;58.66;101360.03;5003342;28;20108;-46
2023/06/29 08:27:25;;;;;;;26.73;18.77;;;;;;;24.85;59.43;101357.78;4995699;28;20782;-47
2023/06/29 08:29:52;;;;;;;23.92;18.67;;;;;;;24.74;59.57;101361.06;4995885;28;20084;-48
2023/06/29 08:32:17;;;;;;;22.85;18.13;;;;;;;24.64;59.58;101363.28;5001553;28;20093;-51
2023/06/29 08:34:43;;;;;;;23.23;18.85;;;;;;;24.70;59.78;101365.22;4999457;28;20057;-48
2023/06/29 08:37:08;;;;;;;23.63;18.77;;;;;;;24.69;60.09;101364.34;4993868;28;20454;-48
2023/06/29 08:39:33;;;;;;;27.10;19.38;;;;;;;24.71;59.08;101358.72;5003881;28;20288;-47
2023/06/29 08:41:59;;;;;;;24.75;19.20;;;;;;;24.69;58.99;101361.63;4999292;28;20026;-48
2023/06/29 08:44:25;;;;;;;24.88;18.15;;;;;;;24.72;59.12;101365.84;4992604;28;20027;-51
2023/06/29 08:46:51;;;;;;;25.10;19.58;;;;;;;24.84;57.86;101356.09;4995621;28;20037;-48
2023/06/29 08:49:20;;;;;;;23.83;19.45;;;;;;;24.92;58.19;101353.22;5004471;28;20022;-49
2023/06/29 08:51:49;;;;;;;24.33;19.17;;;;;;;24.98;58.20;101354.31;4996022;28;20077;-47
2023/06/29 08:54:15;;;;;;;24.83;20.00;;;;;;;25.04;57.46;101352.66;4999261;28;20438;-48
2023/06/29 08:56:41;;;;;;;26.10;20.27;;;;;;;25.15;57.32;101352.09;5001514;28;20025;-47
2023/06/29 08:59:07;;;;;;;24.58;19.48;;;;;;;25.36;56.03;101348.44;5000014;28;20052;-48
2023/06/29 09:01:33;;;;;;;21.92;18.27;;;;;;;25.58;55.37;101351.88;4998050;28;20034;-48
2023/06/29 09:03:59;;;;;;;25.45;19.13;;;;;;;25.83;55.16;101351.28;5008495;28;20041;-50
2023/06/29 09:06:26;;;;;;;22.50;18.80;;;;;;;25.98;55.87;101346.53;5000653;28;20030;-51
2023/06/29 09:08:51;;;;;;;25.25;18.80;;;;;;;26.01;54.71;101343.41;4994590;28;20275;-51
2023/06/29 09:11:17;;;;;;;25.45;19.23;;;;;;;25.95;54.57;101349.69;4986100;28;20034;-49
2023/06/29 09:13:42;;;;;;;23.45;19.38;;;;;;;26.01;54.18;101350.72;5000517;28;20033;-48
2023/06/29 09:16:08;;;;;;;25.80;18.38;;;;;;;25.94;54.25;101342.50;5001258;28;20399;-48
2023/06/29 09:18:34;;;;;;;24.02;19.48;;;;;;;25.97;53.80;101352.19;5003833;28;20033;-48
2023/06/29 09:20:59;;;;;;;23.00;18.65;;;;;;;25.84;53.89;101351.06;4995243;28;20169;-48
2023/06/29 09:23:33;;;;;;;21.55;18.15;;;;;;;25.87;53.35;101352.56;5005155;28;20022;-48
2023/06/29 09:25:58;;;;;;;23.10;18.80;;;;;;;25.82;54.32;101344.19;4999905;28;20058;-48
2023/06/29 09:28:24;;;;;;;23.65;17.52;;;;;;;25.81;55.35;101343.34;5001457;28;20076;-50
2023/06/29 09:30:49;;;;;;;22.83;18.15;;;;;;;25.81;54.01;101345.22;4999241;28;20026;-49
2023/06/29 09:33:15;;;;;;;23.25;19.50;;;;;;;25.84;54.67;101347.53;4999515;28;20050;-48
2023/06/29 09:35:48;;;;;;;24.05;19.40;;;;;;;25.86;54.46;101342.72;4990442;28;20034;-48
2023/06/29 09:38:15;;;;;;;23.25;19.75;;;;;;;25.76;55.02;101342.28;4994454;28;20034;-48
2023/06/29 09:40:55;;;;;;;22.77;19.15;;;;;;;25.80;55.39;101338.13;4996230;28;20026;-50
2023/06/29 09:43:25;;;;;;;25.55;20.45;;;;;;;25.71;54.67;101347.50;4994801;28;20390;-48
2023/06/29 09:45:52;;;;;;;21.38;18.90;;;;;;;25.69;55.37;101344.16;4993512;28;20365;-50
2023/06/29 09:48:21;;;;;;;24.60;20.10;;;;;;;25.72;55.19;101344.56;4999220;28;20369;-48
2023/06/29 09:50:50;;;;;;;24.77;19.95;;;;;;;25.58;56.89;101342.84;4997612;28;20058;-48
2023/06/29 09:53:16;;;;;;;27.48;20.45;;;;;;;25.70;54.18;101351.25;5001025;28;20105;-48
2023/06/29 09:55:42;;;;;;;25.15;20.63;;;;;;;25.57;53.88;101347.47;4998850;28;20461;-49
2023/06/29 09:58:09;;;;;;;28.33;22.15;;;;;;;25.55;54.41;101348.72;5000112;28;20037;-48
2023/06/29 10:00:35;;;;;;;28.40;22.25;;;;;;;25.59;55.59;101348.09;5000402;28;20026;-48
2023/06/29 10:03:01;;;;;;;29.83;22.38;;;;;;;25.69;53.88;101346.88;4998972;28;20027;-48
2023/06/29 10:05:30;;;;;;;26.35;21.63;;;;;;;25.62;55.64;101344.13;5002631;28;20113;-48
2023/06/29 10:07:57;;;;;;;29.23;21.52;;;;;;;25.59;55.42;101337.22;4989297;28;20034;-48
2023/06/29 10:10:27;;;;;;;24.38;20.30;;;;;;;25.62;55.81;101346.88;4991624;28;20114;-48
2023/06/29 10:12:55;;;;;;;25.73;20.92;;;;;;;25.53;56.48;101338.06;4993569;28;20058;-48
2023/06/29 10:15:24;;;;;;;29.23;20.77;;;;;;;25.55;54.98;101344.13;5000643;28;20026;-47
2023/06/29 10:17:53;;;;;;;;;;;;;;;25.83;57.03;101345.84;5000571;28;20080;-48
2023/06/29 10:20:21;;;;;;;26.85;20.75;;;;;;;25.56;54.81;101342.22;4988044;28;19917;-48
2023/06/29 10:22:48;;;;;;;25.55;21.42;;;;;;;25.61;54.55;101343.31;4996284;28;20507;-48
2023/06/29 10:25:19;;;;;;;27.55;21.38;;;;;;;25.58;54.86;101343.72;4997356;28;20038;-48
2023/06/29 10:27:46;;;;;;;27.52;21.77;;;;;;;25.57;54.48;101344.75;4996610;28;20049;-48
2023/06/29 10:30:17;;;;;;;25.20;21.30;;;;;;;25.56;55.72;101348.50;4999747;28;20022;-48
2023/06/29 10:32:48;;;;;;;27.38;22.05;;;;;;;25.51;54.88;101342.00;4994908;28;20027;-48
2023/06/29 10:35:14;;;;;;;28.20;22.45;;;;;;;25.43;53.92;101348.47;4998581;28;20100;-48
2023/06/29 10:37:47;;;;;;;26.77;21.95;;;;;;;25.45;56.32;101343.69;4998471;28;20102;-48
2023/06/29 10:40:14;;;;;;;27.38;22.25;;;;;;;25.40;54.76;101341.56;4997307;28;20072;-48
2023/06/29 10:42:40;;;;;;;29.40;22.40;;;;;;;25.42;54.84;101338.63;5002984;28;20036;-48
2023/06/29 10:45:21;;;;;;;27.90;22.67;;;;;;;25.52;54.66;101346.41;4993842;28;20030;-49
2023/06/29 10:47:55;;;;;;;29.45;22.95;;;;;;;25.37;55.25;101333.81;4996350;28;20037;-48
2023/06/29 10:50:28;;;;;;;26.02;22.45;;;;;;;25.44;54.56;101339.28;4996430;28;20026;-49
2023/06/29 10:52:58;;;;;;;31.33;23.23;;;;;;;25.34;54.77;101331.50;4994607;28;20158;-48
2023/06/29 10:55:26;;;;;;;32.90;23.30;;;;;;;25.35;56.51;101329.59;5000768;28;20026;-49
2023/06/29 10:57:54;;;;;;;29.85;23.63;;;;;;;25.39;56.61;101339.03;4994026;28;20029;-49
2023/06/29 11:00:21;;;;;;;27.63;23.17;;;;;;;25.40;57.79;101332.56;4992307;28;20507;-48
2023/06/29 11:02:49;;;;;;;28.45;23.15;;;;;;;25.46;57.95;101335.31;4994235;28;20050;-48
2023/06/29 11:05:19;;;;;;;28.10;22.38;;;;;;;25.49;57.31;101328.63;4999523;28;20577;-48